createdAt,value
2023-03-22T00:00:15.398Z,35.93
2023-03-22T00:02:45.771Z,35.70
2023-03-22T00:05:14.627Z,36.53
2023-03-22T00:07:43.568Z,37.83
2023-03-22T00:10:12.494Z,37.07
2023-03-22T00:12:41.328Z,36.33
2023-03-22T00:15:11.252Z,36.97
2023-03-22T00:17:42.053Z,37.57
2023-03-22T00:20:13.661Z,36.23
2023-03-22T00:22:42.556Z,34.83
2023-03-22T00:25:11.795Z,35.77
2023-03-22T00:27:40.765Z,36.03
2023-03-22T00:30:11.447Z,36.60
2023-03-22T00:32:40.285Z,37.07
2023-03-22T00:35:09.733Z,37.30
2023-03-22T00:37:40.531Z,37.93
2023-03-22T00:40:13.807Z,37.37
2023-03-22T00:42:43.239Z,37.00
2023-03-22T00:45:13.715Z,37.83
2023-03-22T00:47:42.925Z,36.67
2023-03-22T00:50:12.327Z,35.37
2023-03-22T00:52:42.901Z,36.43
2023-03-22T00:55:11.955Z,38.17
2023-03-22T00:57:40.827Z,37.23
2023-03-22T01:00:16.180Z,37.40
2023-03-22T01:02:47.141Z,36.47
2023-03-22T01:05:22.042Z,36.53
2023-03-22T01:07:55.004Z,34.80
2023-03-22T01:10:24.000Z,37.50
2023-03-22T01:12:52.745Z,34.97
2023-03-22T01:15:23.340Z,37.07
2023-03-22T01:17:54.136Z,36.53
2023-03-22T01:20:23.114Z,36.67
2023-03-22T01:22:53.600Z,37.00
2023-03-22T01:25:22.540Z,37.30
2023-03-22T01:27:51.316Z,35.47
2023-03-22T01:30:20.379Z,37.23
2023-03-22T01:32:49.295Z,37.60
2023-03-22T01:35:19.583Z,37.30
2023-03-22T01:37:48.639Z,35.80
2023-03-22T01:40:20.452Z,37.77
2023-03-22T01:42:49.644Z,35.57
2023-03-22T01:45:40.676Z,34.70
2023-03-22T01:48:27.456Z,34.70
2023-03-22T01:51:04.023Z,34.87
2023-03-22T01:53:42.559Z,33.73
2023-03-22T01:56:14.023Z,34.70
2023-03-22T01:58:43.795Z,34.13
2023-03-22T02:01:14.477Z,33.93
2023-03-22T02:03:54.638Z,34.33
2023-03-22T02:06:25.184Z,34.77
2023-03-22T02:09:03.749Z,35.10
2023-03-22T02:11:35.492Z,33.20
2023-03-22T02:14:30.093Z,33.57
2023-03-22T02:17:28.175Z,32.87
2023-03-22T02:21:01.916Z,33.23
2023-03-22T02:24:08.600Z,33.20
2023-03-22T02:27:10.549Z,32.70
2023-03-22T02:29:46.008Z,34.23
2023-03-22T02:32:44.595Z,32.97
2023-03-22T02:35:34.806Z,33.40
2023-03-22T02:38:31.834Z,32.83
2023-03-22T02:41:10.695Z,33.57
2023-03-22T02:43:46.898Z,33.93
2023-03-22T02:46:20.471Z,34.87
2023-03-22T02:48:57.723Z,35.17
2023-03-22T02:51:32.332Z,34.13
2023-03-22T02:54:05.528Z,34.63
2023-03-22T02:56:41.128Z,34.93
2023-03-22T02:59:13.116Z,33.10
2023-03-22T03:01:46.174Z,35.37
2023-03-22T03:04:19.039Z,36.03
2023-03-22T03:06:51.923Z,35.30
2023-03-22T03:09:22.415Z,35.80
2023-03-22T03:11:54.964Z,34.33
2023-03-22T03:14:26.528Z,35.57
2023-03-22T03:17:14.302Z,35.37
2023-03-22T03:19:51.184Z,35.57
2023-03-22T03:22:37.618Z,34.87
2023-03-22T03:25:18.281Z,35.67
2023-03-22T03:27:57.568Z,34.00
2023-03-22T03:30:35.316Z,34.10
2023-03-22T03:33:09.351Z,33.03
2023-03-22T03:35:42.112Z,31.40
2023-03-22T03:38:17.467Z,33.37
2023-03-22T03:40:49.808Z,33.33
2023-03-22T03:43:21.894Z,32.60
2023-03-22T03:45:51.987Z,32.83
2023-03-22T03:48:23.234Z,32.07
2023-03-22T03:50:55.240Z,30.80
2023-03-22T03:53:24.286Z,32.50
2023-03-22T03:55:54.593Z,32.77
2023-03-22T03:58:25.307Z,32.43
2023-03-22T04:00:54.362Z,31.83
2023-03-22T04:03:50.701Z,32.20
2023-03-22T04:06:45.029Z,33.40
2023-03-22T04:09:18.967Z,33.47
2023-03-22T04:11:52.731Z,32.47
2023-03-22T04:14:23.767Z,32.77
2023-03-22T04:16:55.627Z,32.93
2023-03-22T04:19:26.723Z,32.83
2023-03-22T04:21:55.611Z,35.13
2023-03-22T04:24:25.319Z,35.80
2023-03-22T04:26:54.663Z,34.50
2023-03-22T04:29:32.228Z,36.67
2023-03-22T04:32:16.593Z,35.57
2023-03-22T04:34:46.361Z,35.97
2023-03-22T04:37:17.203Z,36.10
2023-03-22T04:40:20.835Z,35.53
2023-03-22T04:43:04.118Z,35.97
2023-03-22T04:45:48.993Z,35.17
2023-03-22T04:48:23.673Z,35.60
2023-03-22T04:50:54.295Z,35.80
2023-03-22T04:53:28.354Z,36.53
2023-03-22T04:56:05.519Z,35.23
2023-03-22T04:58:35.231Z,36.17
2023-03-22T05:01:06.007Z,36.27
2023-03-22T05:03:36.516Z,37.33
2023-03-22T05:06:08.605Z,35.37
2023-03-22T05:08:45.651Z,37.00
2023-03-22T05:11:17.683Z,36.17
2023-03-22T05:13:55.366Z,36.70
2023-03-22T05:16:26.005Z,37.23
2023-03-22T05:18:55.545Z,37.43
2023-03-22T05:21:28.290Z,36.63
2023-03-22T05:24:00.748Z,37.57
2023-03-22T05:26:29.946Z,38.33
2023-03-22T05:28:58.775Z,37.77
2023-03-22T05:31:40.370Z,38.70
2023-03-22T05:34:09.751Z,39.73
2023-03-22T05:36:40.990Z,37.67
2023-03-22T05:39:21.163Z,39.07
2023-03-22T05:41:50.243Z,39.27
2023-03-22T05:44:19.074Z,39.07
2023-03-22T05:47:00.116Z,39.13
2023-03-22T05:49:35.856Z,39.10
2023-03-22T05:52:06.082Z,40.90
2023-03-22T05:55:04.349Z,39.37
2023-03-22T05:57:33.286Z,38.33
2023-03-22T06:00:07.180Z,37.63
2023-03-22T06:02:43.301Z,38.73
2023-03-22T06:05:12.477Z,40.53
2023-03-22T06:07:41.925Z,39.27
2023-03-22T06:10:18.313Z,38.50
2023-03-22T06:12:47.630Z,35.23
2023-03-22T06:15:25.435Z,37.53
2023-03-22T06:18:03.300Z,34.80
2023-03-22T06:20:36.387Z,36.13
2023-03-22T06:23:11.182Z,34.20
2023-03-22T06:25:41.541Z,32.83
2023-03-22T06:28:10.415Z,32.40
2023-03-22T06:30:41.463Z,31.73
2023-03-22T06:33:30.351Z,30.07
2023-03-22T06:36:09.325Z,30.30
2023-03-22T06:38:47.917Z,29.07
2023-03-22T06:41:16.762Z,30.97
2023-03-22T06:43:45.524Z,32.43
2023-03-22T06:46:35.831Z,31.07
2023-03-22T06:49:14.249Z,31.00
2023-03-22T06:51:43.042Z,29.60
2023-03-22T06:54:13.285Z,29.50
2023-03-22T06:56:42.765Z,28.30
2023-03-22T06:59:13.593Z,29.03
2023-03-22T07:01:42.527Z,29.00
2023-03-22T07:04:14.392Z,27.73
2023-03-22T07:06:44.938Z,27.00
2023-03-22T07:09:13.938Z,25.83
2023-03-22T07:11:43.146Z,26.77
2023-03-22T07:14:12.181Z,25.97
2023-03-22T07:17:01.504Z,27.13
2023-03-22T07:19:33.104Z,25.47
2023-03-22T07:22:07.608Z,25.67
2023-03-22T07:24:44.587Z,26.03
2023-03-22T07:27:20.072Z,26.33
2023-03-22T07:29:48.840Z,27.47
2023-03-22T07:32:17.943Z,25.47
2023-03-22T07:35:06.558Z,25.43
2023-03-22T07:37:35.510Z,24.83
2023-03-22T07:40:09.449Z,25.47
2023-03-22T07:42:39.033Z,24.73
2023-03-22T07:45:30.722Z,24.13
2023-03-22T07:48:18.770Z,23.97
2023-03-22T07:51:09.570Z,23.10
2023-03-22T07:53:38.954Z,23.97
2023-03-22T07:56:09.336Z,21.07
2023-03-22T07:58:38.317Z,22.60
2023-03-22T08:01:09.148Z,23.13
2023-03-22T08:04:10.047Z,23.33
2023-03-22T08:07:00.153Z,23.77
2023-03-22T08:09:30.255Z,22.50
2023-03-22T08:11:59.194Z,23.50
2023-03-22T08:14:36.317Z,22.67
2023-03-22T08:17:08.956Z,22.70
2023-03-22T08:19:37.966Z,22.00
2023-03-22T08:22:11.837Z,22.30
2023-03-22T08:24:58.890Z,20.67
2023-03-22T08:27:31.850Z,20.57
2023-03-22T08:30:02.539Z,20.10
2023-03-22T08:32:33.856Z,19.17
2023-03-22T08:35:02.763Z,19.70
2023-03-22T08:37:32.935Z,20.63
2023-03-22T08:40:07.902Z,20.47
2023-03-22T08:42:44.258Z,19.63
2023-03-22T08:45:13.271Z,19.33
2023-03-22T08:47:49.503Z,18.80
2023-03-22T08:50:20.588Z,19.00
2023-03-22T08:53:07.931Z,19.00
2023-03-22T08:55:39.985Z,19.47
2023-03-22T08:58:16.411Z,20.77
2023-03-22T09:00:51.309Z,20.90
2023-03-22T09:03:38.548Z,17.80
2023-03-22T09:06:08.222Z,15.80
2023-03-22T09:08:42.135Z,19.53
2023-03-22T09:11:18.036Z,17.20
2023-03-22T09:13:49.435Z,17.40
2023-03-22T09:16:19.515Z,14.67
2023-03-22T09:18:49.509Z,15.73
2023-03-22T09:21:21.869Z,15.07
2023-03-22T09:24:17.721Z,16.10
2023-03-22T09:26:51.702Z,16.07
2023-03-22T09:29:21.299Z,15.67
2023-03-22T09:31:50.329Z,15.00
2023-03-22T09:34:23.044Z,14.50
2023-03-22T09:36:52.783Z,13.50
2023-03-22T09:39:26.252Z,13.87
2023-03-22T09:42:02.011Z,14.77
2023-03-22T09:44:34.475Z,12.17
2023-03-22T09:47:06.671Z,11.57
2023-03-22T09:49:50.712Z,12.47
2023-03-22T09:52:22.253Z,11.63
2023-03-22T09:54:53.415Z,9.87
2023-03-22T09:57:28.741Z,10.40
2023-03-22T10:00:11.514Z,10.30
2023-03-22T10:03:00.170Z,9.73
2023-03-22T10:05:36.777Z,10.13
2023-03-22T10:08:23.493Z,10.13
2023-03-22T10:10:54.088Z,10.57
2023-03-22T10:13:29.338Z,10.77
2023-03-22T10:16:00.727Z,10.47
2023-03-22T10:18:34.326Z,10.63
2023-03-22T10:21:05.738Z,10.50
2023-03-22T10:23:42.269Z,9.70
2023-03-22T10:26:22.615Z,10.80
2023-03-22T10:28:59.871Z,10.27
2023-03-22T10:31:30.625Z,10.97
2023-03-22T10:34:02.067Z,11.57
2023-03-22T10:36:35.516Z,10.80
2023-03-22T10:39:11.565Z,10.07
2023-03-22T10:41:42.227Z,9.40
2023-03-22T10:44:19.189Z,9.27
2023-03-22T10:46:50.576Z,9.63
2023-03-22T10:49:26.377Z,9.47
2023-03-22T10:51:59.951Z,9.07
2023-03-22T10:54:28.853Z,8.87
2023-03-22T10:56:59.394Z,9.30
2023-03-22T10:59:47.628Z,9.83
2023-03-22T11:02:21.499Z,9.03
2023-03-22T11:04:52.829Z,8.13
2023-03-22T11:07:31.621Z,9.63
2023-03-22T11:10:22.973Z,8.60
2023-03-22T11:12:56.169Z,9.50
2023-03-22T11:15:28.166Z,10.03
2023-03-22T11:18:03.008Z,9.63
2023-03-22T11:20:33.826Z,9.37
2023-03-22T11:23:05.337Z,9.10
2023-03-22T11:25:36.792Z,8.87
2023-03-22T11:28:19.137Z,8.47
2023-03-22T11:31:04.916Z,8.50
2023-03-22T11:33:35.156Z,8.73
2023-03-22T11:36:06.152Z,9.70
2023-03-22T11:38:38.777Z,9.33
2023-03-22T11:41:22.061Z,9.30
2023-03-22T11:43:55.154Z,9.23
2023-03-22T11:46:24.655Z,9.60
2023-03-22T11:49:00.807Z,9.17
2023-03-22T11:51:33.474Z,8.93
2023-03-22T11:54:09.134Z,8.30
2023-03-22T11:56:43.022Z,9.50
2023-03-22T11:59:17.776Z,8.80
2023-03-22T12:01:53.300Z,8.63
2023-03-22T12:04:27.068Z,8.93
2023-03-22T12:06:59.343Z,9.00
2023-03-22T12:09:39.280Z,8.80
2023-03-22T12:12:16.038Z,8.30
2023-03-22T12:14:51.946Z,8.30
2023-03-22T12:17:30.008Z,8.57
2023-03-22T12:20:08.596Z,8.27
2023-03-22T12:22:41.806Z,9.03
2023-03-22T12:25:17.581Z,8.73
2023-03-22T12:27:50.884Z,8.30
2023-03-22T12:30:24.002Z,8.10
2023-03-22T12:32:58.031Z,7.53
2023-03-22T12:35:30.602Z,8.30
2023-03-22T12:38:03.883Z,9.13
2023-03-22T12:40:35.686Z,8.23
2023-03-22T12:43:12.617Z,6.97
2023-03-22T12:45:47.691Z,7.83
2023-03-22T12:48:22.709Z,7.63
2023-03-22T12:50:57.931Z,8.35
2023-03-22T12:53:34.927Z,6.57
2023-03-22T12:56:04.442Z,7.47
2023-03-22T12:58:33.290Z,7.10
2023-03-22T13:01:19.600Z,6.87
2023-03-22T13:03:52.096Z,6.23
2023-03-22T13:06:34.115Z,6.77
2023-03-22T13:09:15.521Z,6.80
2023-03-22T13:11:46.006Z,6.30
2023-03-22T13:14:56.154Z,6.37
2023-03-22T13:17:41.809Z,7.60
2023-03-22T13:20:28.452Z,7.77
2023-03-22T13:23:03.089Z,7.50
2023-03-22T13:25:37.004Z,8.67
2023-03-22T13:28:23.991Z,7.90
2023-03-22T13:30:54.186Z,8.00
2023-03-22T13:33:28.240Z,7.73
2023-03-22T13:35:59.103Z,7.20
2023-03-22T13:38:30.714Z,7.23
2023-03-22T13:41:03.735Z,7.27
2023-03-22T13:43:35.386Z,7.17
2023-03-22T13:46:43.178Z,6.73
2023-03-22T13:49:51.410Z,7.83
2023-03-22T13:52:34.609Z,7.80
2023-03-22T13:55:03.637Z,8.43
2023-03-22T13:58:00.005Z,8.00
2023-03-22T14:00:39.592Z,7.50
2023-03-22T14:03:16.879Z,8.37
2023-03-22T14:05:47.685Z,7.80
2023-03-22T14:08:24.429Z,8.50
2023-03-22T14:10:59.415Z,7.30
2023-03-22T14:13:34.118Z,7.63
2023-03-22T14:16:09.820Z,7.45
2023-03-22T14:18:43.432Z,8.77
2023-03-22T14:21:18.921Z,6.35
